Time;durP1;ratioP1;P1;durP2;ratioP2;P2;SDS_P1;SDS_P2;PMS_P1;PMS_P2;Temp;Humidity;BMP_temperature;BMP_pressure;BME280_temperature;BME280_humidity;BME280_pressure;Samples;Min_cycle;Max_cycle;Signal;HPM_P1;HPM_P2
2021/07/05 00:00:20;;;;;;;;;;;;;;;16.45;76.76;96591.44;1837654;77;20096;-73
2021/07/05 00:02:48;;;;;;;;;;;;;;;16.46;77.78;96595.27;1830918;77;20126;-74
2021/07/05 00:05:15;;;;;;;;;;;;;;;16.44;76.25;96595.09;1849632;77;20106;-73
2021/07/05 00:07:47;;;;;;;;;;;;;;;16.44;75.43;96595.09;1834886;77;20396;-73
2021/07/05 00:10:17;;;;;;;;;;;;;;;16.44;74.91;96589.28;1797373;79;20114;-74
2021/07/05 00:12:48;;;;;;;;;;;;;;;16.45;74.79;96592.77;1764364;81;20297;-74
2021/07/05 00:15:22;;;;;;;;;;;;;;;16.45;74.75;96594.94;1845749;77;20092;-73
2021/07/05 00:17:52;;;;;;;;;;;;;;;16.46;74.00;96589.10;1837528;77;20100;-74
2021/07/05 00:20:19;;;;;;;;;;;;;;;16.47;74.02;96586.26;1850783;77;20110;-73
2021/07/05 00:22:45;;;;;;;;;;;;;;;16.49;73.98;96587.44;1850558;77;20122;-73
2021/07/05 00:25:11;;;;;;;;;;;;;;;16.51;73.93;96584.92;1843472;77;20206;-74
2021/07/05 00:27:38;;;;;;;;;;;;;;;16.49;74.15;96588.25;1844997;77;20377;-73
2021/07/05 00:30:06;;;;;;;;;;;;;;;16.46;74.16;96589.95;1847396;77;20146;-73
2021/07/05 00:32:32;;;;;;;;;;;;;;;16.44;75.13;96590.61;1847011;77;20140;-72
2021/07/05 00:34:58;;;;;;;;;;;;;;;16.39;75.50;96592.95;1848853;77;20177;-74
2021/07/05 00:37:24;;;;;;;;;;;;;;;16.33;74.36;96594.46;1846453;77;20453;-72
2021/07/05 00:39:50;;;;;;;;;;;;;;;16.29;74.44;96592.31;1842083;77;20424;-74
2021/07/05 00:42:16;;;;;;;;;;;;;;;16.27;74.22;96591.69;1848095;77;20096;-72
2021/07/05 00:44:44;;;;;;;;;;;;;;;16.26;73.96;96592.68;1845484;77;20088;-76
2021/07/05 00:47:10;;;;;;;;;;;;;;;16.25;73.78;96595.82;1847851;77;20100;-73
2021/07/05 00:49:36;;;;;;;;;;;;;;;16.19;74.30;96593.34;1846113;77;20258;-73
2021/07/05 00:52:05;;;;;;;;;;;;;;;16.09;73.56;96595.39;1840898;77;20091;-73
2021/07/05 00:54:31;;;;;;;;;;;;;;;16.02;74.39;96590.41;1843133;77;20112;-73
2021/07/05 00:56:57;;;;;;;;;;;;;;;15.92;73.81;96592.75;1845534;77;20128;-75
2021/07/05 00:59:24;;;;;;;;;;;;;;;15.86;73.64;96593.44;1836875;77;20198;-75
2021/07/05 01:01:50;;;;;;;;;;;;;;;15.86;73.79;96592.11;1844477;77;20174;-73
2021/07/05 01:04:17;;;;;;;;;;;;;;;15.87;74.53;96595.61;1844338;77;20416;-73
2021/07/05 01:06:45;;;;;;;;;;;;;;;15.76;73.23;96595.41;1828725;77;20103;-73
2021/07/05 01:09:11;;;;;;;;;;;;;;;15.67;73.83;96597.27;1847365;77;20392;-73
2021/07/05 01:11:39;;;;;;;;;;;;;;;15.65;73.72;96596.59;1846965;77;20489;-74
2021/07/05 01:14:05;;;;;;;;;;;;;;;15.68;73.86;96595.42;1837888;77;20084;-75
2021/07/05 01:16:31;;;;;;;;;;;;;;;15.73;73.72;96594.44;1840871;77;20373;-74
2021/07/05 01:18:58;;;;;;;;;;;;;;;15.72;74.02;96598.91;1824338;77;20423;-75
2021/07/05 01:21:24;;;;;;;;;;;;;;;15.73;73.70;96595.77;1849313;77;20102;-74
2021/07/05 01:23:50;;;;;;;;;;;;;;;15.74;73.63;96600.05;1850235;77;20114;-74
2021/07/05 01:26:16;;;;;;;;;;;;;;;15.74;73.52;96599.58;1849634;77;20216;-74
2021/07/05 01:28:42;;;;;;;;;;;;;;;15.73;73.41;96597.91;1850249;77;20118;-73
2021/07/05 01:31:08;;;;;;;;;;;;;;;15.70;73.30;96600.89;1797800;77;20181;-73
2021/07/05 01:33:34;;;;;;;;;;;;;;;15.71;73.45;96605.73;1849152;77;20125;-74
2021/07/05 01:36:02;;;;;;;;;;;;;;;15.70;73.37;96600.89;1848674;77;20102;-74
2021/07/05 01:38:28;;;;;;;;;;;;;;;15.73;73.27;96594.44;1847998;77;20142;-73
2021/07/05 01:41:03;;;;;;;;;;;;;;;15.68;73.01;96589.62;1850742;77;20099;-72
2021/07/05 01:43:30;;;;;;;;;;;;;;;15.66;73.14;96592.09;1847992;77;20419;-72
2021/07/05 01:45:56;;;;;;;;;;;;;;;15.65;72.94;96585.13;1849409;77;20450;-72
2021/07/05 01:48:24;;;;;;;;;;;;;;;15.63;73.02;96584.48;1851165;77;20365;-72
2021/07/05 01:50:51;;;;;;;;;;;;;;;15.59;73.07;96585.32;1823968;77;20499;-73
2021/07/05 01:53:19;;;;;;;;;;;;;;;15.57;73.20;96587.31;1852476;77;20150;-73
2021/07/05 01:55:46;;;;;;;;;;;;;;;15.56;73.08;96580.33;1852479;77;20124;-74
2021/07/05 01:58:12;;;;;;;;;;;;;;;15.55;72.92;96575.50;1841736;77;20092;-73
2021/07/05 02:00:43;;;;;;;;;;;;;;;15.51;72.88;96584.82;1826602;77;20097;-74
2021/07/05 02:03:09;;;;;;;;;;;;;;;15.49;72.84;96580.16;1844373;77;20174;-73
2021/07/05 02:05:35;;;;;;;;;;;;;;;15.45;73.03;96577.53;1849180;77;20423;-73
2021/07/05 02:08:03;;;;;;;;;;;;;;;15.41;73.33;96573.53;1843474;77;20408;-73
2021/07/05 02:10:32;;;;;;;;;;;;;;;15.38;73.01;96572.05;1836141;77;20084;-73
2021/07/05 02:13:02;;;;;;;;;;;;;;;15.34;73.65;96565.39;1847138;77;20114;-71
2021/07/05 02:15:28;;;;;;;;;;;;;;;15.31;74.49;96561.77;1851085;77;20126;-72
2021/07/05 02:17:54;;;;;;;;;;;;;;;15.30;73.95;96567.56;1848393;77;20138;-73
2021/07/05 02:20:23;;;;;;;;;;;;;;;15.33;74.09;96569.55;1823043;77;20116;-72
2021/07/05 02:22:51;;;;;;;;;;;;;;;15.33;73.83;96574.36;1842246;77;20104;-74
2021/07/05 02:25:20;;;;;;;;;;;;;;;15.33;73.87;96567.72;1824109;77;20400;-73
2021/07/05 02:27:47;;;;;;;;;;;;;;;15.32;73.75;96571.87;1828872;77;20397;-73
2021/07/05 02:30:17;;;;;;;;;;;;;;;15.30;73.57;96578.69;1848412;77;20392;-71
2021/07/05 02:32:47;;;;;;;;;;;;;;;15.33;74.04;96572.21;1838355;77;20099;-74
2021/07/05 02:35:15;;;;;;;;;;;;;;;15.33;73.43;96578.34;1828310;77;20091;-72
2021/07/05 02:37:43;;;;;;;;;;;;;;;15.33;73.26;96574.36;1840016;77;20123;-74
2021/07/05 02:40:12;;;;;;;;;;;;;;;15.30;73.37;96576.85;1842510;77;20144;-73
2021/07/05 02:42:38;;;;;;;;;;;;;;;15.30;73.15;96575.52;1818576;77;20154;-72
2021/07/05 02:45:06;;;;;;;;;;;;;;;15.27;73.36;96571.05;1847157;77;20088;-74
2021/07/05 02:47:32;;;;;;;;;;;;;;;15.25;73.21;96569.89;1843533;77;20100;-73
2021/07/05 02:49:58;;;;;;;;;;;;;;;15.26;73.63;96576.87;1848775;77;20415;-73
2021/07/05 02:52:25;;;;;;;;;;;;;;;15.26;74.64;96584.83;1849751;77;20450;-74
2021/07/05 02:54:51;;;;;;;;;;;;;;;15.24;73.74;96584.16;1849454;77;20526;-74
2021/07/05 02:57:30;;;;;;;;;;;;;;;15.22;73.57;96591.45;1840832;77;20088;-73
2021/07/05 03:00:01;;;;;;;;;;;;;;;15.19;73.44;96590.44;1843692;77;20092;-74
2021/07/05 03:02:26;;;;;;;;;;;;;;;15.19;73.65;96587.79;1847146;77;20155;-73
2021/07/05 03:04:54;;;;;;;;;;;;;;;15.19;73.25;96593.61;1849728;77;20087;-74
2021/07/05 03:07:20;;;;;;;;;;;;;;;15.20;73.23;96591.30;1831477;77;20120;-75
2021/07/05 03:09:46;;;;;;;;;;;;;;;15.17;73.06;96585.82;1846507;77;20103;-73
2021/07/05 03:12:12;;;;;;;;;;;;;;;15.19;72.79;96581.66;1847576;77;20402;-73
2021/07/05 03:14:39;;;;;;;;;;;;;;;15.16;72.35;96589.47;1843329;77;20420;-73
2021/07/05 03:17:05;;;;;;;;;;;;;;;15.14;72.69;96591.45;1843492;77;20432;-73
2021/07/05 03:19:31;;;;;;;;;;;;;;;15.10;72.16;96596.26;1819617;77;20088;-74
2021/07/05 03:21:58;;;;;;;;;;;;;;;15.06;72.42;96596.75;1843238;77;20127;-75
2021/07/05 03:24:24;;;;;;;;;;;;;;;15.02;72.35;96608.19;1854643;77;20100;-73
2021/07/05 03:26:50;;;;;;;;;;;;;;;14.99;72.37;96607.18;1856516;77;20492;-73
2021/07/05 03:29:16;;;;;;;;;;;;;;;14.97;72.42;96605.18;1853536;77;20400;-76
2021/07/05 03:31:42;;;;;;;;;;;;;;;14.94;72.35;96604.20;1833393;77;20154;-73
2021/07/05 03:34:08;;;;;;;;;;;;;;;14.91;72.38;96604.52;1837088;77;20160;-74
2021/07/05 03:36:34;;;;;;;;;;;;;;;14.87;72.42;96601.84;1846067;77;20147;-73
2021/07/05 03:39:03;;;;;;;;;;;;;;;14.84;72.38;96600.34;1849428;77;20100;-72
2021/07/05 03:41:30;;;;;;;;;;;;;;;14.81;72.46;96594.03;1837692;77;20455;-73
2021/07/05 03:43:56;;;;;;;;;;;;;;;14.79;72.58;96596.85;1842343;77;20444;-73
2021/07/05 03:46:22;;;;;;;;;;;;;;;14.79;72.65;96593.38;1850716;77;20392;-74
2021/07/05 03:48:49;;;;;;;;;;;;;;;14.78;72.75;96599.17;1819938;77;20400;-73
2021/07/05 03:51:16;;;;;;;;;;;;;;;14.79;72.86;96598.17;1845673;77;20167;-74
2021/07/05 03:53:42;;;;;;;;;;;;;;;14.83;72.92;96598.68;1846670;77;20076;-74
2021/07/05 03:56:08;;;;;;;;;;;;;;;14.92;72.92;96597.70;1847035;77;20423;-72
2021/07/05 03:58:34;;;;;;;;;;;;;;;15.17;72.93;96599.57;1844290;77;20072;-71
2021/07/05 04:01:00;;;;;;;;;;;;;;;15.57;72.72;96596.09;1834472;77;20104;-72
2021/07/05 04:03:30;;;;;;;;;;;;;;;16.09;72.25;96599.38;1853675;77;20115;-74
2021/07/05 04:05:58;;;;;;;;;;;;;;;16.50;71.33;96601.06;1850471;77;20089;-75
2021/07/05 04:08:26;;;;;;;;;;;;;;;16.76;70.06;96599.42;1845235;77;20104;-74
2021/07/05 04:10:52;;;;;;;;;;;;;;;16.98;70.00;96594.36;1841390;77;20223;-76
2021/07/05 04:13:18;;;;;;;;;;;;;;;17.14;68.72;96605.41;1838041;77;20116;-72
2021/07/05 04:15:44;;;;;;;;;;;;;;;17.24;68.42;96613.16;1840714;77;20104;-75
2021/07/05 04:18:10;;;;;;;;;;;;;;;17.31;67.59;96618.09;1849100;77;20120;-74
2021/07/05 04:20:37;;;;;;;;;;;;;;;17.38;67.62;96617.73;1846175;77;20097;-74
2021/07/05 04:23:03;;;;;;;;;;;;;;;17.47;65.95;96629.13;1845042;77;20108;-75
2021/07/05 04:25:29;;;;;;;;;;;;;;;17.54;66.02;96634.06;1847903;77;20158;-73
2021/07/05 04:27:55;;;;;;;;;;;;;;;17.59;65.41;96640.19;1850132;77;20122;-75
2021/07/05 04:30:22;;;;;;;;;;;;;;;17.66;65.57;96642.98;1845257;77;20080;-76
2021/07/05 04:32:48;;;;;;;;;;;;;;;17.73;64.91;96638.09;1814741;79;20143;-76
2021/07/05 04:35:17;;;;;;;;;;;;;;;17.83;64.38;96644.49;1839473;77;20111;-75
2021/07/05 04:37:46;;;;;;;;;;;;;;;17.97;64.56;96648.75;1832366;77;20096;-76
2021/07/05 04:40:15;;;;;;;;;;;;;;;18.09;67.23;96633.97;1844330;77;20124;-74
2021/07/05 04:42:43;;;;;;;;;;;;;;;18.58;63.66;96649.95;1846843;77;20174;-74
2021/07/05 04:45:12;;;;;;;;;;;;;;;19.22;63.63;96649.81;1845762;77;20077;-75
2021/07/05 04:47:38;;;;;;;;;;;;;;;19.87;62.70;96635.14;1828305;77;20104;-74
2021/07/05 04:50:05;;;;;;;;;;;;;;;20.45;62.35;96630.08;1847707;77;20100;-74
2021/07/05 04:52:32;;;;;;;;;;;;;;;20.81;58.13;96634.89;1845591;77;20120;-74
2021/07/05 04:54:58;;;;;;;;;;;;;;;21.11;55.01;96630.08;1838747;77;20161;-73
2021/07/05 04:57:24;;;;;;;;;;;;;;;21.45;56.04;96627.45;1850587;77;20159;-74
2021/07/05 04:59:51;;;;;;;;;;;;;;;21.78;57.89;96624.02;1832294;77;20123;-73
2021/07/05 05:02:17;;;;;;;;;;;;;;;22.09;58.59;96614.49;1839140;77;20084;-74
2021/07/05 05:04:43;;;;;;;;;;;;;;;22.40;54.30;96609.84;1835224;77;20411;-73
2021/07/05 05:07:10;;;;;;;;;;;;;;;22.88;59.89;96611.33;1847259;77;20138;-72
2021/07/05 05:09:36;;;;;;;;;;;;;;;23.32;56.90;96614.23;1837145;77;20112;-79
2021/07/05 05:12:03;;;;;;;;;;;;;;;23.59;49.82;96616.73;1813613;78;20099;-74
2021/07/05 05:14:29;;;;;;;;;;;;;;;23.90;52.54;96608.30;1829406;77;20140;-78
2021/07/05 05:16:55;;;;;;;;;;;;;;;24.17;50.01;96607.58;1822834;77;20135;-74
2021/07/05 05:19:21;;;;;;;;;;;;;;;24.32;59.92;96605.88;1831797;77;20223;-73
2021/07/05 05:21:47;;;;;;;;;;;;;;;24.52;50.28;96590.55;1844991;77;20100;-80
2021/07/05 05:24:14;;;;;;;;;;;;;;;24.80;47.96;96596.78;1844767;77;20088;-74
2021/07/05 05:26:40;;;;;;;;;;;;;;;25.16;49.13;96593.72;1843055;77;20100;-73
2021/07/05 05:29:06;;;;;;;;;;;;;;;25.51;49.27;96597.61;1840540;77;20123;-73
2021/07/05 05:31:35;;;;;;;;;;;;;;;25.85;46.56;96601.41;1831853;77;20124;-75
2021/07/05 05:34:02;;;;;;;;;;;;;;;26.22;48.29;96609.85;1846380;77;20123;-74
2021/07/05 05:36:28;;;;;;;;;;;;;;;26.52;46.59;96609.41;1849037;77;20134;-73
2021/07/05 05:38:55;;;;;;;;;;;;;;;26.86;47.64;96605.56;1844477;77;20167;-75
2021/07/05 05:41:21;;;;;;;;;;;;;;;27.04;49.59;96598.62;1849058;77;20260;-74
2021/07/05 05:43:48;;;;;;;;;;;;;;;27.17;44.79;96591.27;1844512;77;20187;-76
2021/07/05 05:46:15;;;;;;;;;;;;;;;27.37;38.97;96583.53;1838046;77;20180;-77
2021/07/05 05:48:50;;;;;;;;;;;;;;;27.66;40.25;96584.86;1837100;77;20096;-74
2021/07/05 05:51:13;;;;;;;;;;;;;;;27.93;40.13;96584.20;1839467;77;20429;-77
2021/07/05 05:53:39;;;;;;;;;;;;;;;28.35;43.33;96575.61;1847984;77;20543;-76
2021/07/05 05:56:05;;;;;;;;;;;;;;;28.72;40.49;96570.16;1849371;77;20409;-76
2021/07/05 05:58:35;;;;;;;;;;;;;;;29.16;37.62;96569.30;1844419;77;20605;-73
2021/07/05 06:01:00;;;;;;;;;;;;;;;29.62;45.26;96570.83;1835416;77;20115;-81
2021/07/05 06:03:26;;;;;;;;;;;;;;;29.90;40.54;96575.11;1838133;77;20176;-76
2021/07/05 06:05:52;;;;;;;;;;;;;;;30.25;36.33;96575.64;1848614;77;20136;-73
2021/07/05 06:08:18;;;;;;;;;;;;;;;30.63;35.03;96579.14;1827627;77;20120;-76
2021/07/05 06:10:44;;;;;;;;;;;;;;;30.97;33.54;96575.46;1842420;77;20146;-73
2021/07/05 06:13:10;;;;;;;;;;;;;;;31.30;32.54;96579.37;1832062;77;20190;-75
2021/07/05 06:15:36;;;;;;;;;;;;;;;31.52;31.22;96581.02;1844637;77;20442;-80
2021/07/05 06:18:03;;;;;;;;;;;;;;;31.81;34.23;96575.06;1848621;77;20108;-80
2021/07/05 06:20:29;;;;;;;;;;;;;;;32.08;41.01;96570.70;1832585;77;20385;-75
2021/07/05 06:22:56;;;;;;;;;;;;;;;32.41;29.91;96574.47;1826464;77;20129;-74
2021/07/05 06:25:23;;;;;;;;;;;;;;;32.54;34.37;96567.88;1834960;77;20108;-73
2021/07/05 06:27:50;;;;;;;;;;;;;;;32.86;34.68;96582.23;1848491;77;20118;-74
2021/07/05 06:30:16;;;;;;;;;;;;;;;33.20;29.36;96576.05;1843143;77;20088;-74
2021/07/05 06:32:43;;;;;;;;;;;;;;;33.48;28.53;96576.44;1844371;77;20116;-76
2021/07/05 06:35:11;;;;;;;;;;;;;;;33.49;29.62;96582.17;1837874;77;20131;-75
2021/07/05 06:37:37;;;;;;;;;;;;;;;33.54;28.83;96588.98;1827038;77;20104;-73
2021/07/05 06:40:05;;;;;;;;;;;;;;;33.86;27.54;96586.28;1836216;77;20127;-78
2021/07/05 06:42:31;;;;;;;;;;;;;;;34.12;31.85;96580.58;1843536;77;20115;-75
2021/07/05 06:44:58;;;;;;;;;;;;;;;33.91;27.10;96579.95;1840215;77;20357;-76
2021/07/05 06:47:24;;;;;;;;;;;;;;;34.01;28.19;96588.06;1841027;77;20124;-76
2021/07/05 06:49:51;;;;;;;;;;;;;;;34.09;29.27;96582.54;1840870;77;20365;-75
2021/07/05 06:52:17;;;;;;;;;;;;;;;34.23;27.89;96577.20;1838897;77;20386;-74
2021/07/05 06:54:43;;;;;;;;;;;;;;;34.16;28.02;96569.88;1836249;78;20100;-72
2021/07/05 06:57:29;;;;;;;;;;;;;;;33.98;27.70;96575.53;1844931;78;20075;-75
2021/07/05 06:59:37;;;;;;;;;;;;;;;34.10;28.33;96573.23;1822392;77;20131;-74
2021/07/05 07:02:04;;;;;;;;;;;;;;;34.37;27.67;96575.97;1840165;77;20128;-77
2021/07/05 07:04:32;;;;;;;;;;;;;;;34.70;27.72;96581.63;1840093;77;20120;-73
2021/07/05 07:06:59;;;;;;;;;;;;;;;34.84;26.79;96589.94;1845608;77;20152;-75
2021/07/05 07:09:25;;;;;;;;;;;;;;;34.88;27.31;96583.58;1847174;77;20095;-76
2021/07/05 07:11:53;;;;;;;;;;;;;;;35.07;27.32;96588.30;1846579;77;20170;-75
2021/07/05 07:14:20;;;;;;;;;;;;;;;35.26;26.37;96592.97;1841941;77;20210;-74
2021/07/05 07:16:52;;;;;;;;;;;;;;;35.39;26.68;96594.16;1820866;78;20102;-74
2021/07/05 07:19:17;;;;;;;;;;;;;;;35.52;26.67;96586.59;1823906;77;20115;-74
2021/07/05 07:21:49;;;;;;;;;;;;;;;35.45;27.84;96581.48;1823682;77;20084;-79
2021/07/05 07:24:17;;;;;;;;;;;;;;;35.25;28.21;96580.39;1840887;77;20197;-76
2021/07/05 07:26:44;;;;;;;;;;;;;;;35.15;27.70;96584.09;1823993;77;20108;-76
2021/07/05 07:29:11;;;;;;;;;;;;;;;34.82;27.08;96577.92;1841919;77;20147;-74
2021/07/05 07:31:39;;;;;;;;;;;;;;;34.54;28.43;96579.08;1830456;77;20155;-72
2021/07/05 07:34:06;;;;;;;;;;;;;;;34.09;28.11;96568.88;1838347;77;20088;-75
2021/07/05 07:36:32;;;;;;;;;;;;;;;33.64;29.72;96571.12;1837176;77;20081;-72
2021/07/05 07:39:10;;;;;;;;;;;;;;;33.26;30.20;96565.38;1848585;77;20151;-73
2021/07/05 07:41:33;;;;;;;;;;;;;;;32.86;32.10;96563.14;1841138;77;20155;-75
2021/07/05 07:44:01;;;;;;;;;;;;;;;31.89;32.15;96558.17;1845121;77;20152;-77
2021/07/05 07:46:29;;;;;;;;;;;;;;;31.32;35.14;96563.60;1814863;78;20456;-71
2021/07/05 07:48:55;;;;;;;;;;;;;;;30.80;33.36;96540.87;1840490;77;20199;-75
2021/07/05 07:51:21;;;;;;;;;;;;;;;31.05;35.01;96551.53;1839321;77;20092;-75
2021/07/05 07:53:48;;;;;;;;;;;;;;;31.45;33.08;96554.89;1839021;77;20093;-75
2021/07/05 07:56:14;;;;;;;;;;;;;;;31.72;33.81;96555.75;1823276;77;20099;-75
2021/07/05 07:58:40;;;;;;;;;;;;;;;31.42;32.72;96556.78;1851568;77;20404;-74
2021/07/05 08:01:07;;;;;;;;;;;;;;;31.15;33.36;96553.75;1851402;77;20194;-74
2021/07/05 08:03:34;;;;;;;;;;;;;;;31.21;33.83;96561.38;1842371;77;20100;-75
2021/07/05 08:06:01;;;;;;;;;;;;;;;31.52;34.05;96557.34;1840988;77;20092;-75
2021/07/05 08:08:27;;;;;;;;;;;;;;;31.56;33.50;96564.42;1812975;77;20167;-74
2021/07/05 08:10:54;;;;;;;;;;;;;;;31.53;33.97;96567.16;1839864;77;20392;-74
2021/07/05 08:13:20;;;;;;;;;;;;;;;31.69;33.59;96564.45;1838610;77;20427;-74
2021/07/05 08:15:48;;;;;;;;;;;;;;;31.95;33.38;96566.62;1843147;78;20373;-72
2021/07/05 08:18:14;;;;;;;;;;;;;;;32.05;32.37;96573.96;1840755;77;20095;-75
2021/07/05 08:20:41;;;;;;;;;;;;;;;32.10;33.16;96569.88;1846420;77;20583;-74
2021/07/05 08:23:07;;;;;;;;;;;;;;;31.48;33.13;96572.58;1839969;77;20151;-74
2021/07/05 08:25:33;;;;;;;;;;;;;;;30.80;33.77;96567.51;1834060;77;20096;-74
2021/07/05 08:27:59;;;;;;;;;;;;;;;30.75;34.27;96562.59;1839527;77;20100;-74
2021/07/05 08:30:27;;;;;;;;;;;;;;;30.98;34.77;96553.97;1844902;77;20124;-76
2021/07/05 08:32:54;;;;;;;;;;;;;;;31.13;34.18;96556.47;1842742;77;20156;-75
2021/07/05 08:35:22;;;;;;;;;;;;;;;31.48;35.44;96543.99;1847488;77;20152;-74
2021/07/05 08:37:49;;;;;;;;;;;;;;;31.52;33.89;96548.34;1845770;77;20159;-74
2021/07/05 08:40:15;;;;;;;;;;;;;;;31.55;33.39;96553.26;1844803;77;20136;-73
2021/07/05 08:42:42;;;;;;;;;;;;;;;31.40;33.50;96556.26;1846549;77;20437;-74
2021/07/05 08:45:10;;;;;;;;;;;;;;;31.17;36.26;96551.31;1841482;77;20151;-76
2021/07/05 08:47:39;;;;;;;;;;;;;;;31.01;34.50;96553.97;1829058;77;20147;-75
2021/07/05 08:50:07;;;;;;;;;;;;;;;30.90;34.37;96547.70;1833764;77;20372;-72
2021/07/05 08:52:35;;;;;;;;;;;;;;;30.91;33.97;96549.31;1843799;77;20144;-75
2021/07/05 08:55:02;;;;;;;;;;;;;;;30.99;34.36;96547.98;1844087;77;20095;-74
2021/07/05 08:57:36;;;;;;;;;;;;;;;30.93;35.49;96547.14;1843126;77;20124;-74
2021/07/05 08:59:59;;;;;;;;;;;;;;;30.85;34.24;96547.67;1840268;77;20092;-73
2021/07/05 09:02:27;;;;;;;;;;;;;;;30.86;34.75;96543.06;1841692;77;20358;-73
2021/07/05 09:04:53;;;;;;;;;;;;;;;30.86;34.58;96541.14;1831058;77;20209;-73
2021/07/05 09:07:19;;;;;;;;;;;;;;;30.96;37.51;96534.90;1820163;78;20387;-73
2021/07/05 09:10:06;;;;;;;;;;;;;;;30.95;35.05;96532.73;1839623;77;20170;-73
2021/07/05 09:12:32;;;;;;;;;;;;;;;31.02;34.67;96533.02;1811780;77;20090;-73
2021/07/05 09:15:08;;;;;;;;;;;;;;;31.10;34.35;96538.79;1844390;77;20131;-74
2021/07/05 09:17:38;;;;;;;;;;;;;;;31.24;33.35;96539.61;1835406;77;20150;-71
2021/07/05 09:20:17;;;;;;;;;;;;;;;31.34;35.31;96536.09;1838353;77;20127;-73
2021/07/05 09:23:10;;;;;;;;;;;;;;;31.19;36.00;96540.42;1849218;77;20092;-79
2021/07/05 09:25:40;;;;;;;;;;;;;;;30.91;37.33;96544.42;1807448;79;20399;-74
2021/07/05 09:28:07;;;;;;;;;;;;;;;30.61;35.85;96544.06;1828649;77;20161;-71
2021/07/05 09:30:45;;;;;;;;;;;;;;;30.25;35.37;96539.79;1798143;78;20126;-81
2021/07/05 09:33:21;;;;;;;;;;;;;;;30.16;37.25;96539.45;1827941;77;20108;-75
2021/07/05 09:35:52;;;;;;;;;;;;;;;29.95;36.03;96547.19;1825569;77;20147;-74
2021/07/05 09:38:36;;;;;;;;;;;;;;;29.54;36.84;96549.03;1796620;78;20146;-73
2021/07/05 09:41:22;;;;;;;;;;;;;;;29.35;37.07;96548.06;1831509;77;20115;-74
2021/07/05 09:43:54;;;;;;;;;;;;;;;29.22;36.55;96545.75;1822501;77;20112;-78
2021/07/05 09:46:34;;;;;;;;;;;;;;;29.23;37.88;96543.32;1842823;77;20440;-75
2021/07/05 09:49:10;;;;;;;;;;;;;;;29.28;38.45;96550.94;1814842;78;20487;-74
2021/07/05 09:51:37;;;;;;;;;;;;;;;29.29;37.77;96551.23;1813951;78;20255;-74
2021/07/05 09:54:04;;;;;;;;;;;;;;;29.33;36.96;96544.77;1823873;77;20174;-75
2021/07/05 09:56:30;;;;;;;;;;;;;;;29.43;37.57;96544.06;1845088;77;20384;-74
2021/07/05 09:59:02;;;;;;;;;;;;;;;29.54;36.91;96544.96;1846432;77;20111;-73
2021/07/05 10:01:41;;;;;;;;;;;;;;;29.62;37.17;96547.20;1838020;77;20136;-74
2021/07/05 10:04:10;;;;;;;;;;;;;;;29.66;37.86;96540.19;1835523;77;20386;-73
2021/07/05 10:06:50;;;;;;;;;;;;;;;29.43;36.40;96549.50;1810070;76;20126;-73
2021/07/05 10:09:22;;;;;;;;;;;;;;;29.36;37.92;96552.41;1826450;76;20096;-78
2021/07/05 10:11:49;;;;;;;;;;;;;;;29.47;36.55;96540.30;1836530;76;20171;-74
2021/07/05 10:14:20;;;;;;;;;;;;;;;29.59;37.48;96541.75;1829737;77;20297;-74
2021/07/05 10:16:48;;;;;;;;;;;;;;;29.66;37.10;96539.34;1805605;77;20104;-74
2021/07/05 10:19:14;;;;;;;;;;;;;;;29.73;37.82;96546.76;1802554;79;20110;-75
2021/07/05 10:21:43;;;;;;;;;;;;;;;29.67;36.92;96542.34;1801725;77;20135;-74
2021/07/05 10:24:10;;;;;;;;;;;;;;;29.39;38.06;96533.44;1832100;77;20092;-74
2021/07/05 10:26:37;;;;;;;;;;;;;;;29.09;37.24;96536.94;1837691;77;20396;-75
2021/07/05 10:29:05;;;;;;;;;;;;;;;28.81;37.38;96534.75;1824682;77;20389;-75
2021/07/05 10:31:34;;;;;;;;;;;;;;;28.59;38.16;96538.80;1830629;77;20389;-73
2021/07/05 10:34:01;;;;;;;;;;;;;;;28.49;37.36;96531.34;1831368;77;20419;-77
2021/07/05 10:36:30;;;;;;;;;;;;;;;28.10;38.37;96531.92;1837433;77;20510;-74
2021/07/05 10:38:57;;;;;;;;;;;;;;;27.98;39.12;96534.16;1819712;78;20119;-74
2021/07/05 10:41:27;;;;;;;;;;;;;;;27.92;39.00;96530.30;1802653;77;20116;-75
2021/07/05 10:43:56;;;;;;;;;;;;;;;28.07;40.06;96532.41;1831796;78;20171;-74
2021/07/05 10:46:53;;;;;;;;;;;;;;;28.12;38.93;96532.50;1838690;77;20115;-74
2021/07/05 10:49:32;;;;;;;;;;;;;;;27.97;38.95;96533.91;1824566;77;20098;-73
2021/07/05 10:52:08;;;;;;;;;;;;;;;27.64;38.92;96534.20;1818132;77;20151;-75
2021/07/05 10:54:52;;;;;;;;;;;;;;;27.27;39.70;96530.59;1831048;77;20175;-75
2021/07/05 10:57:22;;;;;;;;;;;;;;;27.28;39.63;96528.98;1831656;77;20238;-76
2021/07/05 10:59:49;;;;;;;;;;;;;;;27.01;40.04;96526.60;1813377;77;20195;-76
2021/07/05 11:02:34;;;;;;;;;;;;;;;27.02;40.54;96527.73;1823642;77;20173;-74
2021/07/05 11:05:06;;;;;;;;;;;;;;;27.02;40.80;96533.14;1816780;78;20107;-82
2021/07/05 11:07:44;;;;;;;;;;;;;;;27.11;40.71;96530.84;1811817;77;20397;-76
2021/07/05 11:10:20;;;;;;;;;;;;;;;27.21;40.87;96528.33;1844429;77;20154;-75
2021/07/05 11:13:05;;;;;;;;;;;;;;;27.29;40.30;96527.11;1842729;77;20123;-76
2021/07/05 11:15:54;;;;;;;;;;;;;;;27.14;40.68;96525.51;1841831;77;20105;-75
2021/07/05 11:18:41;;;;;;;;;;;;;;;27.12;41.35;96527.08;1844158;77;20435;-76
2021/07/05 11:21:10;;;;;;;;;;;;;;;27.25;40.44;96528.66;1850603;77;20219;-80
2021/07/05 11:24:00;;;;;;;;;;;;;;;27.41;41.13;96529.74;1847432;77;20395;-76
2021/07/05 11:26:30;;;;;;;;;;;;;;;27.54;40.44;96525.41;1822839;77;20450;-77
2021/07/05 11:29:22;;;;;;;;;;;;;;;27.39;41.00;96527.30;1778441;77;20111;-76
2021/07/05 11:31:53;;;;;;;;;;;;;;;27.33;40.62;96518.78;1848685;77;20165;-80
2021/07/05 11:34:37;;;;;;;;;;;;;;;27.32;40.66;96519.88;1847217;77;20447;-76
2021/07/05 11:37:16;;;;;;;;;;;;;;;27.28;41.35;96533.59;1841761;77;20080;-75
2021/07/05 11:39:51;;;;;;;;;;;;;;;26.92;41.31;96531.05;1828258;77;20196;-76
2021/07/05 11:42:32;;;;;;;;;;;;;;;26.72;41.29;96532.00;1824178;77;20115;-77
2021/07/05 11:44:59;;;;;;;;;;;;;;;26.73;41.84;96533.63;1815875;77;20096;-75
2021/07/05 11:47:46;;;;;;;;;;;;;;;26.71;41.71;96535.22;1830713;77;20139;-75
2021/07/05 11:50:22;;;;;;;;;;;;;;;26.70;42.03;96532.23;1822380;77;20092;-76
2021/07/05 11:52:51;;;;;;;;;;;;;;;26.81;42.00;96533.30;1829468;77;20231;-75
2021/07/05 11:55:19;;;;;;;;;;;;;;;26.85;41.55;96526.88;1845665;77;20706;-77
2021/07/05 11:57:46;;;;;;;;;;;;;;;26.75;42.01;96529.64;1827072;77;20210;-77
2021/07/05 12:00:13;;;;;;;;;;;;;;;26.87;41.89;96520.67;1819060;77;20095;-76
2021/07/05 12:02:39;;;;;;;;;;;;;;;27.05;42.22;96523.72;1828171;77;20140;-77
2021/07/05 12:05:08;;;;;;;;;;;;;;;27.20;41.49;96517.77;1846274;77;20245;-76
2021/07/05 12:07:34;;;;;;;;;;;;;;;27.31;40.95;96515.52;1822314;77;20077;-76
2021/07/05 12:10:01;;;;;;;;;;;;;;;27.28;40.50;96520.87;1830147;77;20120;-76
2021/07/05 12:12:32;;;;;;;;;;;;;;;27.33;41.13;96520.13;1824021;78;20467;-75
2021/07/05 12:15:01;;;;;;;;;;;;;;;27.39;41.00;96512.41;1816613;78;20140;-78
2021/07/05 12:17:29;;;;;;;;;;;;;;;27.52;41.43;96518.05;1832176;77;20265;-74
2021/07/05 12:19:55;;;;;;;;;;;;;;;27.52;39.88;96517.22;1824618;77;20383;-76
2021/07/05 12:22:24;;;;;;;;;;;;;;;27.57;41.01;96522.73;1808667;77;20116;-77
2021/07/05 12:24:56;;;;;;;;;;;;;;;27.68;40.54;96515.06;1836677;77;20096;-74
2021/07/05 12:27:30;;;;;;;;;;;;;;;27.82;39.40;96508.77;1829940;78;20144;-87
2021/07/05 12:30:02;;;;;;;;;;;;;;;27.82;39.56;96509.30;1831843;77;20109;-77
2021/07/05 12:32:36;;;;;;;;;;;;;;;27.96;39.54;96510.59;1830561;77;20080;-79
2021/07/05 12:35:13;;;;;;;;;;;;;;;28.05;40.39;96504.20;1834671;77;20104;-79
2021/07/05 12:37:47;;;;;;;;;;;;;;;28.11;39.07;96513.25;1805126;79;20394;-78
2021/07/05 12:40:31;;;;;;;;;;;;;;;28.09;39.65;96516.22;1819924;77;20152;-77
2021/07/05 12:43:09;;;;;;;;;;;;;;;28.10;40.18;96519.73;1799936;77;20197;-79
2021/07/05 12:45:53;;;;;;;;;;;;;;;28.08;39.09;96519.16;1835590;77;20152;-76
2021/07/05 12:48:24;;;;;;;;;;;;;;;28.19;40.04;96510.11;1796083;78;20127;-76
2021/07/05 12:50:56;;;;;;;;;;;;;;;28.25;39.68;96511.84;1818744;78;20535;-81
2021/07/05 12:53:36;;;;;;;;;;;;;;;28.26;39.49;96511.28;1835095;77;20361;-79
2021/07/05 12:56:05;;;;;;;;;;;;;;;28.25;39.38;96516.41;1778040;80;20381;-76